Creamridge, New Jersey
Current Conditions -  °F | °C
As of 2:58 AM on Sunday 21 Dec 2014 (Local Time) from KWRI Reporting Station
Overcast Overcast  
Wind Chill: 30°   Ceiling: 10000
Heat Index: 30°   Visibility: 10mi
Dew Point: 24°   Wind: 3mph
Humidity: 78%   Direction: 320°NW
Pressure: 30.27"   Gusts: NA
Location:  40.1405°N, 74.4965°W
Report Text: KWRI 210758Z AUTO 32003KT 10SM SCT034 OVC100 M01/M05 A3027 RMK AO2 SLP255 T10131047 $
Loading
Personal Weather Stations






























Interactive Weather Map New forecast layout! Learn more

10-Day Weather Forecast

Advertisements
Track Severe Weather on mobile